Malmedy, Belgium
Current Conditions -  °F | °C
As of 10:25 PM on Saturday 22 Nov 2014 (Local Time) from EBLB Reporting Station
Overcast Overcast  
Wind Chill: 45°   Ceiling: 16000
Heat Index: 48°   Visibility: 6mi
Dew Point: 46°   Wind: 7mph
Humidity: 93%   Direction: 210°SSW
Pressure: 30.09"   Gusts: NA
Location:  50.43°N, 6.03°E
Report Text: EBLB 222125Z AUTO 21006KT 9000 OVC160/// 09/08 Q1019 BLU
Loading
Personal Weather Stations






























Interactive Weather Map New forecast layout! Learn more

10-Day Weather Forecast

Advertisements
Track Severe Weather on mobile